sensor_id;sensor_type;location;lat;lon;timestamp;pressure;altitude;pressure_sealevel;temperature;humidity
20037;BME280;10179;42.640;23.312;2023-12-22T00:01:05;92185.91;;;5.59;51.76
20037;BME280;10179;42.640;23.312;2023-12-22T00:03:30;92197.56;;;5.57;52.32
20037;BME280;10179;42.640;23.312;2023-12-22T00:05:56;92174.56;;;5.54;52.47
20037;BME280;10179;42.640;23.312;2023-12-22T00:08:21;92173.72;;;5.36;52.37
20037;BME280;10179;42.640;23.312;2023-12-22T00:10:48;92177.84;;;5.61;52.40
20037;BME280;10179;42.640;23.312;2023-12-22T00:13:14;92172.75;;;5.54;52.12
20037;BME280;10179;42.640;23.312;2023-12-22T00:15:39;92165.06;;;5.47;52.42
20037;BME280;10179;42.640;23.312;2023-12-22T00:18:04;92179.91;;;5.59;52.38
20037;BME280;10179;42.640;23.312;2023-12-22T00:20:31;92155.81;;;5.40;52.58
20037;BME280;10179;42.640;23.312;2023-12-22T00:22:57;92143.72;;;5.45;52.32
20037;BME280;10179;42.640;23.312;2023-12-22T00:25:22;92092.91;;;5.02;52.64
20037;BME280;10179;42.640;23.312;2023-12-22T00:27:47;92176.84;;;5.62;52.62
20037;BME280;10179;42.640;23.312;2023-12-22T00:30:13;92165.81;;;5.71;52.99
20037;BME280;10179;42.640;23.312;2023-12-22T00:32:39;91803.88;;;3.44;52.05
20037;BME280;10179;42.640;23.312;2023-12-22T00:35:05;92167.28;;;5.67;52.40
20037;BME280;10179;42.640;23.312;2023-12-22T00:37:30;92125.03;;;5.77;52.22
20037;BME280;10179;42.640;23.312;2023-12-22T00:39:55;92128.09;;;5.74;52.58
20037;BME280;10179;42.640;23.312;2023-12-22T00:42:21;92124.56;;;5.80;52.51
20037;BME280;10179;42.640;23.312;2023-12-22T00:44:46;92101.66;;;5.82;52.16
20037;BME280;10179;42.640;23.312;2023-12-22T00:47:11;92081.69;;;5.42;52.31
20037;BME280;10179;42.640;23.312;2023-12-22T00:49:37;92100.25;;;5.74;52.24
20037;BME280;10179;42.640;23.312;2023-12-22T00:52:03;92128.28;;;5.56;52.11
20037;BME280;10179;42.640;23.312;2023-12-22T00:54:29;91897.56;;;4.18;52.77
20037;BME280;10179;42.640;23.312;2023-12-22T00:56:57;92135.91;;;5.74;52.72
20037;BME280;10179;42.640;23.312;2023-12-22T00:59:22;92105.25;;;5.64;52.89
20037;BME280;10179;42.640;23.312;2023-12-22T01:01:48;92112.91;;;5.83;52.98
20037;BME280;10179;42.640;23.312;2023-12-22T01:04:13;92113.91;;;5.93;52.87
20037;BME280;10179;42.640;23.312;2023-12-22T01:06:40;92128.69;;;6.05;53.04
20037;BME280;10179;42.640;23.312;2023-12-22T01:09:06;92034.91;;;5.47;52.39
20037;BME280;10179;42.640;23.312;2023-12-22T01:11:31;92022.06;;;5.41;52.01
20037;BME280;10179;42.640;23.312;2023-12-22T01:13:56;91937.75;;;4.96;51.98
20037;BME280;10179;42.640;23.312;2023-12-22T01:16:22;92126.41;;;6.25;51.57
20037;BME280;10179;42.640;23.312;2023-12-22T01:18:49;92038.97;;;5.72;51.62
20037;BME280;10179;42.640;23.312;2023-12-22T01:21:14;92122.94;;;6.36;51.65
20037;BME280;10179;42.640;23.312;2023-12-22T01:23:40;92141.09;;;6.31;51.49
20037;BME280;10179;42.640;23.312;2023-12-22T01:26:05;92104.59;;;6.31;51.25
20037;BME280;10179;42.640;23.312;2023-12-22T01:28:30;92100.97;;;6.32;51.63
20037;BME280;10179;42.640;23.312;2023-12-22T01:30:56;92002.72;;;5.65;51.04
20037;BME280;10179;42.640;23.312;2023-12-22T01:33:21;92112.66;;;6.30;51.28
20037;BME280;10179;42.640;23.312;2023-12-22T01:35:46;92046.97;;;5.94;51.40
20037;BME280;10179;42.640;23.312;2023-12-22T01:38:12;92122.22;;;6.24;51.36
20037;BME280;10179;42.640;23.312;2023-12-22T01:40:38;92087.16;;;6.15;51.64
20037;BME280;10179;42.640;23.312;2023-12-22T01:43:03;92006.25;;;5.76;51.55
20037;BME280;10179;42.640;23.312;2023-12-22T01:45:28;91931.03;;;5.29;51.35
20037;BME280;10179;42.640;23.312;2023-12-22T01:47:54;92081.75;;;6.38;51.21
20037;BME280;10179;42.640;23.312;2023-12-22T01:50:20;92067.56;;;6.29;51.24
20037;BME280;10179;42.640;23.312;2023-12-22T01:52:46;92000.50;;;5.91;51.51
20037;BME280;10179;42.640;23.312;2023-12-22T01:55:13;92068.88;;;6.49;51.26
20037;BME280;10179;42.640;23.312;2023-12-22T01:57:41;92091.34;;;6.50;51.29
20037;BME280;10179;42.640;23.312;2023-12-22T02:00:08;92064.72;;;6.48;51.10
20037;BME280;10179;42.640;23.312;2023-12-22T02:02:33;92046.47;;;6.48;50.89
20037;BME280;10179;42.640;23.312;2023-12-22T02:04:59;91945.91;;;5.79;50.96
20037;BME280;10179;42.640;23.312;2023-12-22T02:07:25;91934.69;;;5.62;50.72
20037;BME280;10179;42.640;23.312;2023-12-22T02:09:50;92059.81;;;6.51;50.84
20037;BME280;10179;42.640;23.312;2023-12-22T02:12:15;92048.53;;;6.29;50.71
20037;BME280;10179;42.640;23.312;2023-12-22T02:14:41;92023.16;;;6.24;51.02
20037;BME280;10179;42.640;23.312;2023-12-22T02:17:26;92060.53;;;6.47;51.24
20037;BME280;10179;42.640;23.312;2023-12-22T02:19:54;91975.66;;;5.83;50.84
20037;BME280;10179;42.640;23.312;2023-12-22T02:22:21;91947.16;;;5.77;50.97
20037;BME280;10179;42.640;23.312;2023-12-22T02:24:46;91987.56;;;5.79;51.15
20037;BME280;10179;42.640;23.312;2023-12-22T02:30:13;92059.22;;;6.66;50.88
20037;BME280;10179;42.640;23.312;2023-12-22T02:32:42;91943.97;;;5.91;51.07
20037;BME280;10179;42.640;23.312;2023-12-22T02:35:23;91887.19;;;5.55;50.92
20037;BME280;10179;42.640;23.312;2023-12-22T02:37:50;92072.38;;;6.54;50.95
20037;BME280;10179;42.640;23.312;2023-12-22T02:40:16;92004.31;;;6.17;51.33
20037;BME280;10179;42.640;23.312;2023-12-22T02:42:42;91983.53;;;6.22;50.66
20037;BME280;10179;42.640;23.312;2023-12-22T02:45:14;92068.56;;;6.62;50.66
20037;BME280;10179;42.640;23.312;2023-12-22T02:47:40;92053.63;;;6.57;50.82
20037;BME280;10179;42.640;23.312;2023-12-22T02:50:06;91935.31;;;5.69;51.02
20037;BME280;10179;42.640;23.312;2023-12-22T02:52:32;92058.69;;;6.64;51.08
20037;BME280;10179;42.640;23.312;2023-12-22T02:54:57;91578.50;;;3.48;51.09
20037;BME280;10179;42.640;23.312;2023-12-22T02:57:23;92040.75;;;6.67;50.68
20037;BME280;10179;42.640;23.312;2023-12-22T02:59:48;92051.72;;;6.69;51.18
20037;BME280;10179;42.640;23.312;2023-12-22T03:02:13;92012.72;;;6.80;50.83
20037;BME280;10179;42.640;23.312;2023-12-22T03:04:39;92022.06;;;6.76;50.41
20037;BME280;10179;42.640;23.312;2023-12-22T03:07:05;91971.75;;;6.36;50.85
20037;BME280;10179;42.640;23.312;2023-12-22T03:09:30;91995.22;;;6.58;51.08
20037;BME280;10179;42.640;23.312;2023-12-22T03:11:57;92021.00;;;6.77;51.43
20037;BME280;10179;42.640;23.312;2023-12-22T03:14:29;92020.31;;;6.81;50.93
20037;BME280;10179;42.640;23.312;2023-12-22T03:16:55;91973.41;;;6.42;50.91
20037;BME280;10179;42.640;23.312;2023-12-22T03:19:21;91929.28;;;6.19;51.01
20037;BME280;10179;42.640;23.312;2023-12-22T03:21:48;91698.75;;;4.78;50.23
20037;BME280;10179;42.640;23.312;2023-12-22T03:24:14;91978.19;;;6.51;50.18
20037;BME280;10179;42.640;23.312;2023-12-22T03:26:39;92040.97;;;6.88;50.78
20037;BME280;10179;42.640;23.312;2023-12-22T03:29:04;92045.72;;;6.91;50.77
20037;BME280;10179;42.640;23.312;2023-12-22T03:31:30;92037.19;;;6.96;50.67
20037;BME280;10179;42.640;23.312;2023-12-22T03:33:56;92040.31;;;6.98;51.03
20037;BME280;10179;42.640;23.312;2023-12-22T03:36:21;91584.97;;;3.96;50.56
20037;BME280;10179;42.640;23.312;2023-12-22T03:38:47;91982.38;;;6.74;50.55
20037;BME280;10179;42.640;23.312;2023-12-22T03:41:12;91905.28;;;6.17;50.58
20037;BME280;10179;42.640;23.312;2023-12-22T03:43:37;92045.66;;;7.08;50.85
20037;BME280;10179;42.640;23.312;2023-12-22T03:46:03;91761.81;;;5.41;50.54
20037;BME280;10179;42.640;23.312;2023-12-22T03:48:28;91981.59;;;6.73;50.64
20037;BME280;10179;42.640;23.312;2023-12-22T03:50:53;92019.56;;;7.08;51.06
20037;BME280;10179;42.640;23.312;2023-12-22T03:53:19;92011.63;;;6.98;50.83
20037;BME280;10179;42.640;23.312;2023-12-22T03:55:45;92033.22;;;7.15;51.15
20037;BME280;10179;42.640;23.312;2023-12-22T03:58:10;91999.88;;;6.95;50.58
20037;BME280;10179;42.640;23.312;2023-12-22T04:00:36;92033.22;;;7.15;50.89
20037;BME280;10179;42.640;23.312;2023-12-22T04:03:01;92031.88;;;7.12;50.57
20037;BME280;10179;42.640;23.312;2023-12-22T04:05:27;91970.66;;;6.76;50.80
20037;BME280;10179;42.640;23.312;2023-12-22T04:07:53;91890.84;;;6.31;50.59
20037;BME280;10179;42.640;23.312;2023-12-22T04:10:18;92029.69;;;7.26;50.50
20037;BME280;10179;42.640;23.312;2023-12-22T04:12:44;91994.94;;;6.99;50.79
20037;BME280;10179;42.640;23.312;2023-12-22T04:15:09;92039.91;;;7.28;50.75
20037;BME280;10179;42.640;23.312;2023-12-22T04:17:35;92021.16;;;7.31;50.75
20037;BME280;10179;42.640;23.312;2023-12-22T04:20:00;92028.97;;;7.31;50.48
20037;BME280;10179;42.640;23.312;2023-12-22T04:22:26;91948.75;;;6.77;50.44
20037;BME280;10179;42.640;23.312;2023-12-22T04:24:51;92020.84;;;7.27;50.70
20037;BME280;10179;42.640;23.312;2023-12-22T04:27:16;92022.16;;;7.30;50.88
20037;BME280;10179;42.640;23.312;2023-12-22T04:29:42;92013.31;;;7.31;50.73
20037;BME280;10179;42.640;23.312;2023-12-22T04:32:07;92020.66;;;7.34;50.65
20037;BME280;10179;42.640;23.312;2023-12-22T04:34:32;92000.50;;;7.29;50.67
20037;BME280;10179;42.640;23.312;2023-12-22T04:36:58;91946.22;;;6.82;50.45
20037;BME280;10179;42.640;23.312;2023-12-22T04:39:23;91915.72;;;6.61;50.66
20037;BME280;10179;42.640;23.312;2023-12-22T04:41:48;91767.56;;;5.65;51.02
20037;BME280;10179;42.640;23.312;2023-12-22T04:44:14;91967.94;;;7.10;50.94
20037;BME280;10179;42.640;23.312;2023-12-22T04:46:39;91818.66;;;6.10;50.81
20037;BME280;10179;42.640;23.312;2023-12-22T04:49:05;91968.31;;;6.97;51.09
20037;BME280;10179;42.640;23.312;2023-12-22T04:51:30;91993.41;;;7.25;51.32
20037;BME280;10179;42.640;23.312;2023-12-22T04:53:55;91903.22;;;6.63;51.54
20037;BME280;10179;42.640;23.312;2023-12-22T04:56:21;91999.38;;;7.20;51.24
20037;BME280;10179;42.640;23.312;2023-12-22T04:58:47;91991.13;;;7.06;51.56
20037;BME280;10179;42.640;23.312;2023-12-22T05:01:12;91977.81;;;7.08;51.54
20037;BME280;10179;42.640;23.312;2023-12-22T05:03:37;91986.00;;;7.16;51.45
20037;BME280;10179;42.640;23.312;2023-12-22T05:06:03;91943.44;;;6.89;51.31
20037;BME280;10179;42.640;23.312;2023-12-22T05:08:29;91879.94;;;6.34;51.22
20037;BME280;10179;42.640;23.312;2023-12-22T05:10:54;91919.09;;;6.83;51.20
20037;BME280;10179;42.640;23.312;2023-12-22T05:13:20;91913.28;;;6.76;51.26
20037;BME280;10179;42.640;23.312;2023-12-22T05:15:45;91976.16;;;7.24;51.22
20037;BME280;10179;42.640;23.312;2023-12-22T05:18:10;91983.50;;;7.27;51.26
20037;BME280;10179;42.640;23.312;2023-12-22T05:20:36;91992.63;;;7.24;51.27
20037;BME280;10179;42.640;23.312;2023-12-22T05:23:01;91919.09;;;6.83;51.50
20037;BME280;10179;42.640;23.312;2023-12-22T05:25:27;91942.84;;;7.09;51.31
20037;BME280;10179;42.640;23.312;2023-12-22T05:27:54;91974.34;;;7.24;51.63
20037;BME280;10179;42.640;23.312;2023-12-22T05:30:19;92002.16;;;7.40;51.65
20037;BME280;10179;42.640;23.312;2023-12-22T05:32:45;91942.41;;;7.17;51.14
20037;BME280;10179;42.640;23.312;2023-12-22T05:35:10;91953.09;;;7.15;51.24
20037;BME280;10179;42.640;23.312;2023-12-22T05:37:36;92022.09;;;7.47;50.94
20037;BME280;10179;42.640;23.312;2023-12-22T05:40:02;91971.84;;;7.34;51.11
20037;BME280;10179;42.640;23.312;2023-12-22T05:42:28;91883.88;;;6.59;51.25
20037;BME280;10179;42.640;23.312;2023-12-22T05:44:53;92023.69;;;7.48;51.43
20037;BME280;10179;42.640;23.312;2023-12-22T05:47:18;91964.13;;;7.23;51.17
20037;BME280;10179;42.640;23.312;2023-12-22T05:49:44;91957.63;;;7.25;51.03
20037;BME280;10179;42.640;23.312;2023-12-22T05:52:09;91969.91;;;7.52;50.99
20037;BME280;10179;42.640;23.312;2023-12-22T05:54:35;91962.06;;;7.52;51.05
20037;BME280;10179;42.640;23.312;2023-12-22T05:57:02;91951.94;;;7.28;51.24
20037;BME280;10179;42.640;23.312;2023-12-22T05:59:30;91964.03;;;7.39;51.75
20037;BME280;10179;42.640;23.312;2023-12-22T06:01:57;91939.97;;;6.83;51.38
20037;BME280;10179;42.640;23.312;2023-12-22T06:04:23;91961.88;;;7.31;51.45
20037;BME280;10179;42.640;23.312;2023-12-22T06:06:49;91982.47;;;7.55;51.22
20037;BME280;10179;42.640;23.312;2023-12-22T06:09:15;91705.63;;;5.67;51.20
20037;BME280;10179;42.640;23.312;2023-12-22T06:11:40;91848.00;;;6.44;51.93
20037;BME280;10179;42.640;23.312;2023-12-22T06:14:06;91795.22;;;6.10;51.90
20037;BME280;10179;42.640;23.312;2023-12-22T06:16:31;91963.91;;;7.24;51.78
20037;BME280;10179;42.640;23.312;2023-12-22T06:18:57;91991.94;;;7.34;51.69
20037;BME280;10179;42.640;23.312;2023-12-22T06:21:22;92007.19;;;7.47;52.05
20037;BME280;10179;42.640;23.312;2023-12-22T06:23:48;91978.63;;;7.35;51.70
20037;BME280;10179;42.640;23.312;2023-12-22T06:26:13;91975.97;;;7.30;51.87
20037;BME280;10179;42.640;23.312;2023-12-22T06:28:39;92004.88;;;7.51;51.52
20037;BME280;10179;42.640;23.312;2023-12-22T06:31:05;91964.34;;;7.16;52.04
20037;BME280;10179;42.640;23.312;2023-12-22T06:33:31;91893.19;;;6.77;51.69
20037;BME280;10179;42.640;23.312;2023-12-22T06:35:56;91996.56;;;7.54;51.58
20037;BME280;10179;42.640;23.312;2023-12-22T06:38:22;92010.75;;;7.63;51.36
20037;BME280;10179;42.640;23.312;2023-12-22T06:40:47;91998.09;;;7.50;51.86
20037;BME280;10179;42.640;23.312;2023-12-22T06:43:13;92009.69;;;7.59;51.74
20037;BME280;10179;42.640;23.312;2023-12-22T06:45:39;92020.91;;;7.59;51.73
20037;BME280;10179;42.640;23.312;2023-12-22T06:48:06;92015.97;;;7.63;51.72
20037;BME280;10179;42.640;23.312;2023-12-22T06:50:31;91779.59;;;6.10;51.58
20037;BME280;10179;42.640;23.312;2023-12-22T06:52:56;91992.81;;;7.45;52.05
20037;BME280;10179;42.640;23.312;2023-12-22T06:55:22;92019.63;;;7.62;52.99
20037;BME280;10179;42.640;23.312;2023-12-22T06:57:48;91866.31;;;6.76;52.56
20037;BME280;10179;42.640;23.312;2023-12-22T07:00:14;92014.09;;;7.85;52.20
20037;BME280;10179;42.640;23.312;2023-12-22T07:02:39;92020.94;;;7.92;51.97
20037;BME280;10179;42.640;23.312;2023-12-22T07:07:51;92014.25;;;8.06;51.82
20037;BME280;10179;42.640;23.312;2023-12-22T07:10:17;91984.59;;;7.90;51.58
20037;BME280;10179;42.640;23.312;2023-12-22T07:12:42;92004.94;;;8.20;51.34
20037;BME280;10179;42.640;23.312;2023-12-22T07:15:07;92037.41;;;8.24;51.31
20037;BME280;10179;42.640;23.312;2023-12-22T07:17:33;91908.88;;;7.63;51.55
20037;BME280;10179;42.640;23.312;2023-12-22T07:19:59;91980.31;;;8.11;51.73
20037;BME280;10179;42.640;23.312;2023-12-22T07:22:24;91997.06;;;8.15;51.54
20037;BME280;10179;42.640;23.312;2023-12-22T07:24:50;92039.69;;;8.43;51.93
20037;BME280;10179;42.640;23.312;2023-12-22T07:27:17;92041.34;;;8.59;52.14
20037;BME280;10179;42.640;23.312;2023-12-22T07:29:43;92027.53;;;8.69;51.69
20037;BME280;10179;42.640;23.312;2023-12-22T07:32:08;92031.97;;;8.68;51.30
20037;BME280;10179;42.640;23.312;2023-12-22T07:34:33;92022.78;;;8.66;51.75
20037;BME280;10179;42.640;23.312;2023-12-22T07:36:59;92039.78;;;8.63;51.93
20037;BME280;10179;42.640;23.312;2023-12-22T07:39:24;92043.72;;;8.60;51.80
20037;BME280;10179;42.640;23.312;2023-12-22T07:41:50;92035.06;;;8.60;52.06
20037;BME280;10179;42.640;23.312;2023-12-22T07:44:15;91987.25;;;8.32;52.39
20037;BME280;10179;42.640;23.312;2023-12-22T07:46:41;92027.22;;;8.60;52.36
20037;BME280;10179;42.640;23.312;2023-12-22T07:49:06;92044.44;;;8.56;52.33
20037;BME280;10179;42.640;23.312;2023-12-22T07:51:31;92055.97;;;8.55;52.46
20037;BME280;10179;42.640;23.312;2023-12-22T07:53:58;92060.69;;;8.58;52.72
20037;BME280;10179;42.640;23.312;2023-12-22T07:56:23;91946.72;;;7.93;52.60
20037;BME280;10179;42.640;23.312;2023-12-22T07:58:48;92000.19;;;8.12;52.77
20037;BME280;10179;42.640;23.312;2023-12-22T08:01:14;91744.63;;;6.60;52.97
20037;BME280;10179;42.640;23.312;2023-12-22T08:03:40;92074.31;;;8.60;52.62
20037;BME280;10179;42.640;23.312;2023-12-22T08:06:06;92067.53;;;8.64;52.96
20037;BME280;10179;42.640;23.312;2023-12-22T08:08:32;92062.31;;;8.64;52.75
20037;BME280;10179;42.640;23.312;2023-12-22T08:10:58;92082.22;;;8.70;52.97
20037;BME280;10179;42.640;23.312;2023-12-22T08:13:24;92106.81;;;8.69;52.45
20037;BME280;10179;42.640;23.312;2023-12-22T08:15:49;92076.97;;;8.70;52.99
20037;BME280;10179;42.640;23.312;2023-12-22T08:18:15;92082.75;;;8.67;53.29
20037;BME280;10179;42.640;23.312;2023-12-22T08:20:41;92042.88;;;8.55;52.38
20037;BME280;10179;42.640;23.312;2023-12-22T08:23:06;92033.34;;;8.39;52.66
20037;BME280;10179;42.640;23.312;2023-12-22T08:25:31;92105.25;;;8.68;53.00
20037;BME280;10179;42.640;23.312;2023-12-22T08:27:57;92028.28;;;7.95;53.27
20037;BME280;10179;42.640;23.312;2023-12-22T08:30:22;92056.44;;;8.47;53.77
20037;BME280;10179;42.640;23.312;2023-12-22T08:32:49;91995.56;;;7.87;53.96
20037;BME280;10179;42.640;23.312;2023-12-22T08:35:15;92042.06;;;8.17;53.84
20037;BME280;10179;42.640;23.312;2023-12-22T08:37:41;92094.72;;;8.58;54.18
20037;BME280;10179;42.640;23.312;2023-12-22T08:40:07;92091.53;;;8.56;54.73
20037;BME280;10179;42.640;23.312;2023-12-22T08:42:33;92107.81;;;8.63;54.58
20037;BME280;10179;42.640;23.312;2023-12-22T08:44:58;92099.97;;;8.63;54.59
20037;BME280;10179;42.640;23.312;2023-12-22T08:47:24;92105.72;;;8.60;54.65
20037;BME280;10179;42.640;23.312;2023-12-22T08:49:50;92068.47;;;8.48;54.64
20037;BME280;10179;42.640;23.312;2023-12-22T08:52:15;92055.09;;;8.39;55.13
20037;BME280;10179;42.640;23.312;2023-12-22T08:54:41;92084.53;;;8.62;55.06
20037;BME280;10179;42.640;23.312;2023-12-22T08:57:06;92070.59;;;8.51;54.81
20037;BME280;10179;42.640;23.312;2023-12-22T08:59:32;92081.00;;;8.46;55.24
20037;BME280;10179;42.640;23.312;2023-12-22T09:01:57;92097.88;;;8.60;55.08
20037;BME280;10179;42.640;23.312;2023-12-22T09:04:22;92092.56;;;8.50;55.72
20037;BME280;10179;42.640;23.312;2023-12-22T09:06:51;92103.69;;;8.67;55.54
20037;BME280;10179;42.640;23.312;2023-12-22T09:09:17;92093.72;;;8.64;55.49
20037;BME280;10179;42.640;23.312;2023-12-22T09:11:42;92073.72;;;8.53;55.15
20037;BME280;10179;42.640;23.312;2023-12-22T09:14:08;92117.91;;;8.81;55.25
20037;BME280;10179;42.640;23.312;2023-12-22T09:16:35;92066.31;;;8.40;55.25
20037;BME280;10179;42.640;23.312;2023-12-22T09:19:00;92138.50;;;8.73;55.35
20037;BME280;10179;42.640;23.312;2023-12-22T09:21:26;92187.19;;;8.74;55.70
20037;BME280;10179;42.640;23.312;2023-12-22T09:23:51;92128.00;;;8.68;55.61
20037;BME280;10179;42.640;23.312;2023-12-22T09:26:17;91973.78;;;7.76;55.46
20037;BME280;10179;42.640;23.312;2023-12-22T09:28:45;92135.47;;;8.86;55.77
20037;BME280;10179;42.640;23.312;2023-12-22T09:31:10;92077.66;;;8.50;55.97
20037;BME280;10179;42.640;23.312;2023-12-22T09:33:38;91952.91;;;7.81;55.79
20037;BME280;10179;42.640;23.312;2023-12-22T09:36:03;92114.78;;;8.84;55.56
20037;BME280;10179;42.640;23.312;2023-12-22T09:38:29;92030.69;;;8.33;55.86
20037;BME280;10179;42.640;23.312;2023-12-22T09:40:55;92119.53;;;8.93;55.69
20037;BME280;10179;42.640;23.312;2023-12-22T09:43:21;92097.41;;;8.73;55.99
20037;BME280;10179;42.640;23.312;2023-12-22T09:45:47;92110.66;;;8.94;55.78
20037;BME280;10179;42.640;23.312;2023-12-22T09:48:15;92055.41;;;8.53;55.98
20037;BME280;10179;42.640;23.312;2023-12-22T09:50:44;92095.88;;;8.77;56.17
20037;BME280;10179;42.640;23.312;2023-12-22T09:53:13;92066.97;;;8.57;56.66
20037;BME280;10179;42.640;23.312;2023-12-22T09:55:42;92092.19;;;8.73;57.15
20037;BME280;10179;42.640;23.312;2023-12-22T09:58:12;92085.41;;;8.77;57.65
20037;BME280;10179;42.640;23.312;2023-12-22T10:00:38;92054.91;;;8.56;57.25
20037;BME280;10179;42.640;23.312;2023-12-22T10:03:07;92063.66;;;8.72;57.58
20037;BME280;10179;42.640;23.312;2023-12-22T10:05:34;92064.78;;;8.81;57.37
20037;BME280;10179;42.640;23.312;2023-12-22T10:08:00;91939.50;;;8.05;57.15
20037;BME280;10179;42.640;23.312;2023-12-22T10:10:30;92096.06;;;9.08;57.57
20037;BME280;10179;42.640;23.312;2023-12-22T10:12:59;92088.25;;;9.18;57.43
20037;BME280;10179;42.640;23.312;2023-12-22T10:15:25;92076.78;;;9.24;57.42
20037;BME280;10179;42.640;23.312;2023-12-22T10:17:52;92083.09;;;9.33;57.31
20037;BME280;10179;42.640;23.312;2023-12-22T10:20:18;92081.28;;;9.39;56.76
20037;BME280;10179;42.640;23.312;2023-12-22T10:22:43;92065.84;;;9.43;56.53
20037;BME280;10179;42.640;23.312;2023-12-22T10:25:09;91969.22;;;8.78;56.16
20037;BME280;10179;42.640;23.312;2023-12-22T10:27:37;92046.47;;;9.49;56.36
20037;BME280;10179;42.640;23.312;2023-12-22T10:30:03;91944.66;;;8.90;56.73
20037;BME280;10179;42.640;23.312;2023-12-22T10:32:29;91985.09;;;9.29;56.59
20037;BME280;10179;42.640;23.312;2023-12-22T10:34:55;92035.50;;;9.57;56.10
20037;BME280;10179;42.640;23.312;2023-12-22T10:37:24;91969.38;;;9.24;55.84
20037;BME280;10179;42.640;23.312;2023-12-22T10:39:54;91966.25;;;9.27;55.98
20037;BME280;10179;42.640;23.312;2023-12-22T10:42:20;92007.97;;;9.65;56.33
20037;BME280;10179;42.640;23.312;2023-12-22T10:44:46;92032.16;;;9.87;56.12
20037;BME280;10179;42.640;23.312;2023-12-22T10:47:11;91977.88;;;9.62;56.28
20037;BME280;10179;42.640;23.312;2023-12-22T10:49:37;91996.22;;;9.93;56.54
20037;BME280;10179;42.640;23.312;2023-12-22T10:52:02;91899.50;;;9.45;56.44
20037;BME280;10179;42.640;23.312;2023-12-22T10:54:29;92000.97;;;10.21;56.44
20037;BME280;10179;42.640;23.312;2023-12-22T10:56:59;92019.59;;;10.35;56.83
20037;BME280;10179;42.640;23.312;2023-12-22T10:59:31;91999.41;;;10.46;56.54
20037;BME280;10179;42.640;23.312;2023-12-22T11:01:58;91993.09;;;10.57;56.03
20037;BME280;10179;42.640;23.312;2023-12-22T11:04:29;91972.94;;;10.32;56.18
20037;BME280;10179;42.640;23.312;2023-12-22T11:06:57;91996.19;;;10.69;55.72
20037;BME280;10179;42.640;23.312;2023-12-22T11:09:23;91853.88;;;9.87;55.84
20037;BME280;10179;42.640;23.312;2023-12-22T11:11:51;91990.94;;;10.80;55.78
20037;BME280;10179;42.640;23.312;2023-12-22T11:14:16;91980.69;;;10.83;55.84
20037;BME280;10179;42.640;23.312;2023-12-22T11:16:44;91972.31;;;10.81;55.80
20037;BME280;10179;42.640;23.312;2023-12-22T11:19:13;91953.09;;;10.81;56.06
20037;BME280;10179;42.640;23.312;2023-12-22T11:21:40;91945.53;;;10.74;55.62
20037;BME280;10179;42.640;23.312;2023-12-22T11:24:07;91890.25;;;10.35;56.02
20037;BME280;10179;42.640;23.312;2023-12-22T11:26:33;91896.56;;;10.34;55.63
20037;BME280;10179;42.640;23.312;2023-12-22T11:28:59;91949.44;;;10.77;54.81
20037;BME280;10179;42.640;23.312;2023-12-22T11:31:25;91930.53;;;10.85;53.79
20037;BME280;10179;42.640;23.312;2023-12-22T11:33:54;91967.72;;;11.07;52.41
20037;BME280;10179;42.640;23.312;2023-12-22T11:36:22;91968.19;;;11.19;51.59
20037;BME280;10179;42.640;23.312;2023-12-22T11:38:48;91984.72;;;11.30;51.45
20037;BME280;10179;42.640;23.312;2023-12-22T11:41:26;91969.66;;;11.46;49.94
20037;BME280;10179;42.640;23.312;2023-12-22T11:43:52;91962.59;;;11.36;48.83
20037;BME280;10179;42.640;23.312;2023-12-22T11:46:19;92005.63;;;11.51;48.54
20037;BME280;10179;42.640;23.312;2023-12-22T11:48:48;91997.50;;;11.52;48.63
20037;BME280;10179;42.640;23.312;2023-12-22T11:51:15;92007.22;;;11.52;48.29
20037;BME280;10179;42.640;23.312;2023-12-22T11:53:40;91955.00;;;11.30;48.35
20037;BME280;10179;42.640;23.312;2023-12-22T11:56:07;91982.44;;;11.58;47.44
20037;BME280;10179;42.640;23.312;2023-12-22T12:01:03;91989.53;;;11.62;46.01
20037;BME280;10179;42.640;23.312;2023-12-22T12:03:30;91870.16;;;10.80;45.86
20037;BME280;10179;42.640;23.312;2023-12-22T12:08:54;91941.88;;;11.30;45.65
20037;BME280;10179;42.640;23.312;2023-12-22T12:11:21;91964.59;;;11.55;45.38
20037;BME280;10179;42.640;23.312;2023-12-22T12:13:47;92003.19;;;11.69;45.33
20037;BME280;10179;42.640;23.312;2023-12-22T12:16:14;92010.53;;;11.67;45.22
20037;BME280;10179;42.640;23.312;2023-12-22T12:18:41;92017.94;;;11.65;45.12
20037;BME280;10179;42.640;23.312;2023-12-22T12:21:08;91981.72;;;11.52;45.18
20037;BME280;10179;42.640;23.312;2023-12-22T12:23:34;91975.97;;;11.45;45.04
20037;BME280;10179;42.640;23.312;2023-12-22T12:26:00;91977.78;;;11.50;44.42
20037;BME280;10179;42.640;23.312;2023-12-22T12:28:28;91925.91;;;11.16;43.85
20037;BME280;10179;42.640;23.312;2023-12-22T12:30:58;91718.91;;;9.74;43.86
20037;BME280;10179;42.640;23.312;2023-12-22T12:33:25;91974.69;;;11.37;44.04
20037;BME280;10179;42.640;23.312;2023-12-22T12:35:53;91981.28;;;11.35;43.99
20037;BME280;10179;42.640;23.312;2023-12-22T12:38:23;91951.34;;;11.26;43.79
20037;BME280;10179;42.640;23.312;2023-12-22T12:40:54;91946.59;;;11.33;43.54
20037;BME280;10179;42.640;23.312;2023-12-22T12:43:22;91937.13;;;11.32;43.56
20037;BME280;10179;42.640;23.312;2023-12-22T12:45:47;91937.72;;;11.23;43.20
20037;BME280;10179;42.640;23.312;2023-12-22T12:48:16;91887.03;;;11.18;42.60
20037;BME280;10179;42.640;23.312;2023-12-22T12:50:42;91921.84;;;11.39;41.60
20037;BME280;10179;42.640;23.312;2023-12-22T12:53:07;91931.53;;;11.43;39.33
20037;BME280;10179;42.640;23.312;2023-12-22T12:55:33;91894.59;;;11.25;38.68
20037;BME280;10179;42.640;23.312;2023-12-22T12:57:58;91898.56;;;11.22;38.49
20037;BME280;10179;42.640;23.312;2023-12-22T13:00:31;91965.66;;;11.59;38.27
20037;BME280;10179;42.640;23.312;2023-12-22T13:03:06;91978.50;;;11.60;39.41